createdAt,value
2018-05-26T00:00:41.097Z,99694.55
2018-05-26T00:03:07.637Z,99691.08
2018-05-26T00:05:34.026Z,99688.04
2018-05-26T00:08:00.453Z,99685.47
2018-05-26T00:10:26.887Z,99687.28
2018-05-26T00:12:53.240Z,99679.01
2018-05-26T00:15:19.652Z,99672.40
2018-05-26T00:17:46.070Z,99679.63
2018-05-26T00:20:12.707Z,99682.14
2018-05-26T00:22:39.226Z,99681.62
2018-05-26T00:25:05.678Z,99685.53
2018-05-26T00:27:32.061Z,99682.81
2018-05-26T00:29:58.442Z,99676.77
2018-05-26T00:32:24.856Z,99673.92
2018-05-26T00:34:51.248Z,99678.67
2018-05-26T00:37:17.605Z,99684.42
2018-05-26T00:39:44.014Z,99689.89
2018-05-26T00:42:10.447Z,99689.80
2018-05-26T00:44:36.872Z,99692.28
2018-05-26T00:47:03.896Z,99705.05
2018-05-26T00:49:30.406Z,99705.30
2018-05-26T00:51:56.762Z,99702.02
2018-05-26T00:54:23.150Z,99704.25
2018-05-26T00:56:49.531Z,99707.45
2018-05-26T00:59:15.976Z,99706.68
2018-05-26T01:01:42.374Z,99711.53
2018-05-26T01:04:08.738Z,99717.81
2018-05-26T01:06:35.130Z,99715.05
2018-05-26T01:09:01.510Z,99712.11
2018-05-26T01:11:27.942Z,99713.52
2018-05-26T01:13:54.318Z,99709.58
2018-05-26T01:16:20.688Z,99708.67
2018-05-26T01:18:47.122Z,99708.06
2018-05-26T01:21:13.485Z,99708.02
2018-05-26T01:23:39.858Z,99705.67
2018-05-26T01:26:06.205Z,99710.38
2018-05-26T01:28:32.577Z,99706.11
2018-05-26T01:30:58.937Z,99703.44
2018-05-26T01:33:25.333Z,99696.80
2018-05-26T01:35:51.700Z,99703.44
2018-05-26T01:38:18.121Z,99710.19
2018-05-26T01:40:44.484Z,99716.23
2018-05-26T01:43:10.918Z,99715.00
2018-05-26T01:45:37.452Z,99708.62
2018-05-26T01:48:03.954Z,99705.05
2018-05-26T01:50:30.362Z,99705.23
2018-05-26T01:52:56.758Z,99707.71
2018-05-26T01:55:23.105Z,99702.64
2018-05-26T01:57:49.577Z,99699.58
2018-05-26T02:00:15.981Z,99700.19
2018-05-26T02:02:42.387Z,99694.06
2018-05-26T02:05:08.797Z,99701.25
2018-05-26T02:07:35.251Z,99700.58
2018-05-26T02:10:01.635Z,99705.00
2018-05-26T02:12:28.033Z,99706.38
2018-05-26T02:14:54.394Z,99717.50
2018-05-26T02:17:20.883Z,99713.53
2018-05-26T02:19:47.281Z,99716.44
2018-05-26T02:22:13.756Z,99723.00
2018-05-26T02:24:40.161Z,99724.83
2018-05-26T02:27:06.591Z,99720.45
2018-05-26T02:29:32.974Z,99721.70
2018-05-26T02:31:59.337Z,99726.52
2018-05-26T02:34:25.744Z,99730.66
2018-05-26T02:36:52.090Z,99736.34
2018-05-26T02:39:18.464Z,99736.68
2018-05-26T02:41:44.841Z,99735.38
2018-05-26T02:44:11.228Z,99736.55
2018-05-26T02:46:37.638Z,99742.83
2018-05-26T02:49:04.029Z,99738.96
2018-05-26T02:51:31.209Z,99740.65
2018-05-26T02:53:57.690Z,99744.59
2018-05-26T02:56:24.099Z,99744.66
2018-05-26T02:58:50.744Z,99744.79
2018-05-26T03:01:17.132Z,99752.62
2018-05-26T03:03:43.456Z,99751.08
2018-05-26T03:06:15.969Z,99758.63
2018-05-26T03:08:48.407Z,99753.91
2018-05-26T03:11:20.918Z,99758.80
2018-05-26T03:13:53.342Z,99753.78
2018-05-26T03:16:19.774Z,99749.15
2018-05-26T03:18:46.166Z,99756.05
2018-05-26T03:21:12.605Z,99755.53
2018-05-26T03:23:39.022Z,99757.25
2018-05-26T03:26:06.015Z,99762.13
2018-05-26T03:28:33.410Z,99753.45
2018-05-26T03:30:59.799Z,99755.08
2018-05-26T03:33:26.190Z,99764.86
2018-05-26T03:35:52.659Z,99757.48
2018-05-26T03:38:19.006Z,99755.63
2018-05-26T03:40:46.325Z,99758.37
2018-05-26T03:43:12.705Z,99758.99
2018-05-26T03:45:39.126Z,99753.98
2018-05-26T03:48:05.478Z,99759.42
2018-05-26T03:50:31.842Z,99755.14
2018-05-26T03:52:58.204Z,99767.22
2018-05-26T03:55:37.558Z,99753.58
2018-05-26T03:58:16.126Z,99751.31
2018-05-26T04:00:42.430Z,99744.86
2018-05-26T04:03:08.851Z,99748.41
2018-05-26T04:05:35.236Z,99749.58
2018-05-26T04:08:01.629Z,99748.91
2018-05-26T04:10:28.066Z,99758.83
2018-05-26T04:12:54.454Z,99758.41
2018-05-26T04:15:20.914Z,99760.47
2018-05-26T04:17:48.274Z,99762.27
2018-05-26T04:20:14.725Z,99759.86
2018-05-26T04:22:41.212Z,99761.67
2018-05-26T04:25:07.569Z,99760.76
2018-05-26T04:27:33.970Z,99761.56
2018-05-26T04:30:00.376Z,99762.95
2018-05-26T04:32:26.775Z,99767.06
2018-05-26T04:34:53.134Z,99770.93
2018-05-26T04:37:19.534Z,99775.13
2018-05-26T04:39:45.917Z,99770.94
2018-05-26T04:42:13.196Z,99766.75
2018-05-26T04:44:39.558Z,99763.23
2018-05-26T04:47:06.112Z,99776.70
2018-05-26T04:49:32.476Z,99778.70
2018-05-26T04:51:58.839Z,99785.73
2018-05-26T04:54:25.230Z,99791.25
2018-05-26T04:56:51.692Z,99790.97
2018-05-26T04:59:18.069Z,99787.98
2018-05-26T05:01:44.465Z,99795.73
2018-05-26T05:04:10.833Z,99793.45
2018-05-26T05:06:37.762Z,99791.73
2018-05-26T05:09:04.202Z,99799.82
2018-05-26T05:11:30.578Z,99797.91
2018-05-26T05:13:57.009Z,99805.33
2018-05-26T05:16:23.408Z,99804.05
2018-05-26T05:18:49.796Z,99806.43
2018-05-26T05:21:16.190Z,99803.75
2018-05-26T05:23:42.639Z,99803.97
2018-05-26T05:26:09.042Z,99795.75
2018-05-26T05:28:35.424Z,99803.50
2018-05-26T05:31:01.834Z,99791.92
2018-05-26T05:33:28.294Z,99795.70
2018-05-26T05:35:54.694Z,99797.94
2018-05-26T05:38:21.078Z,99806.74
2018-05-26T05:40:47.425Z,99807.02
2018-05-26T05:43:13.962Z,99815.94
2018-05-26T05:45:40.397Z,99807.26
2018-05-26T05:48:06.854Z,99819.50
2018-05-26T05:50:33.840Z,99825.10
2018-05-26T05:53:01.165Z,99820.28
2018-05-26T05:55:27.549Z,99823.55
2018-05-26T05:57:53.947Z,99824.26
2018-05-26T06:00:20.469Z,99830.36
2018-05-26T06:02:46.902Z,99826.94
2018-05-26T06:05:13.340Z,99830.97
2018-05-26T06:07:40.636Z,99833.23
2018-05-26T06:10:07.227Z,99828.00
2018-05-26T06:12:33.603Z,99828.09
2018-05-26T06:15:00.063Z,99827.52
2018-05-26T06:17:26.394Z,99830.14
2018-05-26T06:19:52.810Z,99828.37
2018-05-26T06:22:19.318Z,99829.34
2018-05-26T06:24:45.711Z,99830.25
2018-05-26T06:27:12.082Z,99839.09
2018-05-26T06:29:39.042Z,99835.71
2018-05-26T06:32:05.565Z,99837.74
2018-05-26T06:34:31.956Z,99836.62
2018-05-26T06:36:58.502Z,99840.36
2018-05-26T06:39:24.882Z,99834.16
2018-05-26T06:41:51.362Z,99836.67
2018-05-26T06:44:18.070Z,99838.94
2018-05-26T06:46:44.425Z,99848.03
2018-05-26T06:49:10.785Z,99848.09
2018-05-26T06:51:37.225Z,99842.40
2018-05-26T06:54:03.833Z,99846.42
2018-05-26T06:56:30.321Z,99852.80
2018-05-26T06:58:56.681Z,99850.05
2018-05-26T07:01:23.161Z,99854.05
2018-05-26T07:03:49.692Z,99859.95
2018-05-26T07:06:16.078Z,99853.79
2018-05-26T07:08:42.449Z,99862.13
2018-05-26T07:11:09.014Z,99852.89
2018-05-26T07:13:35.548Z,99847.27
2018-05-26T07:16:01.976Z,99856.28
2018-05-26T07:18:28.422Z,99853.38
2018-05-26T07:20:54.825Z,99858.55
2018-05-26T07:23:21.707Z,99854.65
2018-05-26T07:25:48.462Z,99852.38
2018-05-26T07:28:14.875Z,99852.72
2018-05-26T07:30:41.399Z,99853.77
2018-05-26T07:33:08.444Z,99855.28
2018-05-26T07:35:34.886Z,99849.78
2018-05-26T07:38:01.302Z,99857.58
2018-05-26T07:40:27.679Z,99856.33
2018-05-26T07:42:54.999Z,99856.95
2018-05-26T07:45:21.378Z,99860.55
2018-05-26T07:47:47.793Z,99855.38
2018-05-26T07:50:14.169Z,99855.26
2018-05-26T07:52:40.590Z,99863.17
2018-05-26T07:55:07.769Z,99866.23
2018-05-26T07:57:34.190Z,99860.53
2018-05-26T08:00:00.605Z,99859.83
2018-05-26T08:02:26.989Z,99865.58
2018-05-26T08:04:55.409Z,99865.28
2018-05-26T08:07:21.848Z,99857.00
2018-05-26T08:09:48.405Z,99862.22
2018-05-26T08:12:14.867Z,99863.63
2018-05-26T08:14:41.253Z,99859.00
2018-05-26T08:17:07.825Z,99851.38
2018-05-26T08:19:34.253Z,99863.31
2018-05-26T08:22:00.606Z,99859.27
2018-05-26T08:24:27.008Z,99860.51
2018-05-26T08:26:53.441Z,99867.72
2018-05-26T08:29:19.834Z,99866.10
2018-05-26T08:31:46.435Z,99870.84
2018-05-26T08:34:12.990Z,99865.78
2018-05-26T08:36:39.417Z,99871.42
2018-05-26T08:39:05.818Z,99877.08
2018-05-26T08:41:32.477Z,99875.31
2018-05-26T08:43:58.860Z,99868.67
2018-05-26T08:46:25.413Z,99867.82
2018-05-26T08:48:51.862Z,99867.58
2018-05-26T08:51:18.210Z,99877.02
2018-05-26T08:53:45.555Z,99874.73
2018-05-26T08:56:12.358Z,99871.81
2018-05-26T08:58:38.902Z,99863.05
2018-05-26T09:01:05.350Z,99859.39
2018-05-26T09:03:31.811Z,99856.59
2018-05-26T09:05:58.475Z,99859.38
2018-05-26T09:08:24.862Z,99855.27
2018-05-26T09:10:51.266Z,99856.66
2018-05-26T09:13:17.664Z,99856.17
2018-05-26T09:15:44.034Z,99859.56
2018-05-26T09:18:10.443Z,99849.63
2018-05-26T09:20:36.875Z,99854.72
2018-05-26T09:23:03.246Z,99852.08
2018-05-26T09:25:29.684Z,99852.78
2018-05-26T09:27:56.147Z,99851.58
2018-05-26T09:30:23.485Z,99837.89
2018-05-26T09:32:49.903Z,99834.02
2018-05-26T09:35:16.274Z,99831.51
2018-05-26T09:37:42.613Z,99826.53
2018-05-26T09:40:09.033Z,99829.33
2018-05-26T09:42:35.476Z,99830.34
2018-05-26T09:45:01.846Z,99827.73
2018-05-26T09:47:29.868Z,99837.73
2018-05-26T09:49:56.301Z,99837.32
2018-05-26T09:52:22.710Z,99829.91
2018-05-26T09:54:49.106Z,99833.19
2018-05-26T09:57:15.504Z,99828.05
2018-05-26T09:59:41.910Z,99827.38
2018-05-26T10:02:08.299Z,99826.45
2018-05-26T10:04:34.734Z,99818.36
2018-05-26T10:07:01.116Z,99815.42
2018-05-26T10:09:27.471Z,99815.69
2018-05-26T10:11:53.896Z,99822.69
2018-05-26T10:14:20.321Z,99818.80
2018-05-26T10:16:46.714Z,99805.48
2018-05-26T10:19:13.114Z,99806.66
2018-05-26T10:21:39.683Z,99804.33
2018-05-26T10:24:06.094Z,99813.75
2018-05-26T10:26:32.517Z,99803.95
2018-05-26T10:28:58.929Z,99797.50
2018-05-26T10:31:25.465Z,99799.34
2018-05-26T10:33:52.017Z,99796.13
2018-05-26T10:36:18.375Z,99782.16
2018-05-26T10:38:44.790Z,99780.05
2018-05-26T10:41:11.213Z,99774.84
2018-05-26T10:43:37.559Z,99782.75
2018-05-26T10:46:16.208Z,99778.90
2018-05-26T10:48:42.504Z,99787.15
2018-05-26T10:51:08.914Z,99773.48
2018-05-26T10:53:35.209Z,99766.52
2018-05-26T10:56:01.538Z,99771.39
2018-05-26T10:58:27.848Z,99778.46
2018-05-26T11:00:54.171Z,99769.19
2018-05-26T11:03:21.494Z,99778.19
2018-05-26T11:05:47.754Z,99779.21
2018-05-26T11:08:14.090Z,99776.84
2018-05-26T11:10:40.442Z,99780.53
2018-05-26T11:13:06.789Z,99777.64
2018-05-26T11:15:33.120Z,99784.64
2018-05-26T11:17:59.746Z,99787.05
2018-05-26T11:20:26.220Z,99778.63
2018-05-26T11:22:52.743Z,99783.44
2018-05-26T11:25:19.059Z,99784.86
2018-05-26T11:27:45.539Z,99785.78
2018-05-26T11:30:11.916Z,99783.36
2018-05-26T11:32:38.826Z,99788.92
2018-05-26T11:35:05.158Z,99791.17
2018-05-26T11:37:31.650Z,99780.31
2018-05-26T11:39:57.934Z,99778.30
2018-05-26T11:42:24.271Z,99774.57
2018-05-26T11:44:50.657Z,99766.70
2018-05-26T11:47:17.185Z,99767.03
2018-05-26T11:49:43.494Z,99766.77
2018-05-26T11:52:09.834Z,99770.20
2018-05-26T11:54:36.187Z,99767.98
2018-05-26T11:57:02.488Z,99762.28
2018-05-26T11:59:28.825Z,99769.89
2018-05-26T12:01:55.170Z,99769.14
2018-05-26T12:04:21.594Z,99774.63
2018-05-26T12:06:47.921Z,99773.41
2018-05-26T12:09:14.255Z,99774.69
2018-05-26T12:11:41.273Z,99770.81
2018-05-26T12:14:07.626Z,99773.84
2018-05-26T12:16:33.938Z,99776.98
2018-05-26T12:19:00.290Z,99763.92
2018-05-26T12:21:26.595Z,99758.22
2018-05-26T12:23:52.940Z,99771.41
2018-05-26T12:26:19.286Z,99765.22
2018-05-26T12:28:45.646Z,99760.33
2018-05-26T12:31:11.934Z,99760.09
2018-05-26T12:33:38.261Z,99755.87
2018-05-26T12:36:04.609Z,99753.56
2018-05-26T12:38:31.065Z,99760.08
2018-05-26T12:40:57.394Z,99755.03
2018-05-26T12:43:23.831Z,99751.68
2018-05-26T12:45:50.141Z,99750.45
2018-05-26T12:48:17.066Z,99733.03
2018-05-26T12:50:43.410Z,99728.87
2018-05-26T12:53:09.753Z,99731.56
2018-05-26T12:55:36.238Z,99735.54
2018-05-26T12:58:02.739Z,99722.12
2018-05-26T13:00:29.053Z,99727.17
2018-05-26T13:02:55.584Z,99733.30
2018-05-26T13:05:22.963Z,99736.23
2018-05-26T13:07:49.326Z,99734.60
2018-05-26T13:10:15.738Z,99733.56
2018-05-26T13:12:42.078Z,99730.88
2018-05-26T13:15:08.491Z,99733.73
2018-05-26T13:17:34.841Z,99737.55
2018-05-26T13:20:01.222Z,99735.38
2018-05-26T13:22:29.209Z,99726.91
2018-05-26T13:24:55.685Z,99729.18
2018-05-26T13:27:22.044Z,99717.50
2018-05-26T13:29:48.380Z,99717.19
2018-05-26T13:32:14.743Z,99705.89
2018-05-26T13:34:41.032Z,99699.35
2018-05-26T13:37:07.377Z,99703.47
2018-05-26T13:39:33.722Z,99718.80
2018-05-26T13:42:00.067Z,99709.58
2018-05-26T13:44:26.478Z,99730.81
2018-05-26T13:46:52.992Z,99731.86
2018-05-26T13:49:19.409Z,99739.51
2018-05-26T13:51:46.794Z,99730.84
2018-05-26T13:54:13.159Z,99736.96
2018-05-26T13:56:39.557Z,99735.30
2018-05-26T13:59:05.966Z,99743.63
2018-05-26T14:01:32.373Z,99745.04
2018-05-26T14:04:29.959Z,99750.50
2018-05-26T14:06:56.305Z,99742.83
2018-05-26T14:09:22.872Z,99743.95
2018-05-26T14:11:49.386Z,99744.93
2018-05-26T14:14:15.841Z,99747.14
2018-05-26T14:17:18.255Z,99751.23
2018-05-26T14:19:46.625Z,99750.96
2018-05-26T14:22:13.066Z,99744.74
2018-05-26T14:24:39.497Z,99750.22
2018-05-26T14:27:05.903Z,99761.72
2018-05-26T14:29:32.453Z,99765.86
2018-05-26T14:31:58.827Z,99759.32
2018-05-26T14:34:25.333Z,99757.35
2018-05-26T14:36:51.673Z,99757.55
2018-05-26T14:39:18.079Z,99753.08
2018-05-26T14:41:44.501Z,99759.39
2018-05-26T14:44:10.893Z,99763.69
2018-05-26T14:46:37.317Z,99759.13
2018-05-26T14:49:04.356Z,99762.09
2018-05-26T14:51:30.777Z,99759.56
2018-05-26T14:53:57.285Z,99765.50
2018-05-26T14:56:24.565Z,99768.73
2018-05-26T14:58:50.972Z,99759.65
2018-05-26T15:01:17.415Z,99764.52
2018-05-26T15:03:43.794Z,99758.66
2018-05-26T15:06:10.241Z,99759.71
2018-05-26T15:08:36.627Z,99761.33
2018-05-26T15:11:03.041Z,99751.88
2018-05-26T15:13:29.453Z,99764.10
2018-05-26T15:15:55.964Z,99770.56
2018-05-26T15:18:22.382Z,99770.38
2018-05-26T15:20:48.739Z,99772.52
2018-05-26T15:23:15.154Z,99776.53
2018-05-26T15:25:41.547Z,99771.31
2018-05-26T15:28:07.997Z,99775.94
2018-05-26T15:30:34.414Z,99770.39
2018-05-26T15:33:00.902Z,99776.28
2018-05-26T15:35:27.294Z,99769.89
2018-05-26T15:37:53.681Z,99770.06
2018-05-26T15:40:20.059Z,99762.41
2018-05-26T15:42:46.596Z,99758.72
2018-05-26T15:45:13.034Z,99752.23
2018-05-26T15:47:39.446Z,99756.63
2018-05-26T15:50:05.823Z,99754.42
2018-05-26T15:52:32.229Z,99752.16
2018-05-26T15:54:58.635Z,99758.79
2018-05-26T15:57:24.993Z,99770.53
2018-05-26T15:59:51.427Z,99775.29
2018-05-26T16:02:17.885Z,99784.22
2018-05-26T16:04:44.331Z,99784.62
2018-05-26T16:07:10.713Z,99781.67
2018-05-26T16:09:37.076Z,99787.66
2018-05-26T16:12:03.489Z,99789.75
2018-05-26T16:14:29.882Z,99790.60
2018-05-26T16:16:56.360Z,99789.63
2018-05-26T16:19:22.862Z,99787.12
2018-05-26T16:21:49.228Z,99794.36
2018-05-26T16:24:15.601Z,99795.78
2018-05-26T16:26:41.948Z,99800.57
2018-05-26T16:29:08.374Z,99806.22
2018-05-26T16:31:34.856Z,99809.79
2018-05-26T16:34:01.279Z,99819.81
2018-05-26T16:36:27.644Z,99816.62
2018-05-26T16:38:54.041Z,99817.19
2018-05-26T16:41:20.402Z,99822.82
2018-05-26T16:43:46.833Z,99821.22
2018-05-26T16:46:13.214Z,99827.55
2018-05-26T16:48:39.612Z,99827.41
2018-05-26T16:51:06.009Z,99830.95
2018-05-26T16:53:32.431Z,99835.75
2018-05-26T16:55:58.853Z,99841.83
2018-05-26T16:58:25.254Z,99838.96
2018-05-26T17:00:51.619Z,99846.05
2018-05-26T17:03:18.012Z,99841.58
2018-05-26T17:05:44.413Z,99846.57
2018-05-26T17:08:10.898Z,99848.09
2018-05-26T17:10:37.293Z,99859.02
2018-05-26T17:13:03.720Z,99862.28
2018-05-26T17:15:30.108Z,99858.92
2018-05-26T17:17:56.454Z,99862.78
2018-05-26T17:20:22.792Z,99862.31
2018-05-26T17:22:49.197Z,99856.81
2018-05-26T17:25:15.582Z,99862.88
2018-05-26T17:27:42.185Z,99861.95
2018-05-26T17:30:08.574Z,99871.05
2018-05-26T17:32:35.007Z,99871.59
2018-05-26T17:35:01.518Z,99866.10
2018-05-26T17:37:28.109Z,99875.92
2018-05-26T17:39:54.511Z,99868.98
2018-05-26T17:42:20.917Z,99875.25
2018-05-26T17:44:47.350Z,99874.47
2018-05-26T17:47:13.758Z,99870.77
2018-05-26T17:49:40.158Z,99872.77
2018-05-26T17:52:06.558Z,99882.54
2018-05-26T17:54:32.981Z,99879.80
2018-05-26T17:56:59.354Z,99886.64
2018-05-26T17:59:25.744Z,99885.62
2018-05-26T18:01:52.154Z,99893.36
2018-05-26T18:04:18.529Z,99891.88
2018-05-26T18:06:44.915Z,99897.51
2018-05-26T18:09:11.292Z,99899.31
2018-05-26T18:11:37.690Z,99900.97
2018-05-26T18:14:04.070Z,99890.93
2018-05-26T18:16:30.522Z,99898.17
2018-05-26T18:18:56.894Z,99903.45
2018-05-26T18:21:23.310Z,99896.78
2018-05-26T18:23:49.777Z,99899.74
2018-05-26T18:26:16.312Z,99909.41
2018-05-26T18:28:42.745Z,99923.97
2018-05-26T18:31:09.130Z,99921.69
2018-05-26T18:33:36.553Z,99926.91
2018-05-26T18:36:02.938Z,99929.94
2018-05-26T18:38:29.403Z,99945.50
2018-05-26T18:40:55.745Z,99955.62
2018-05-26T18:43:22.141Z,99949.48
2018-05-26T18:45:48.514Z,99949.84
2018-05-26T18:48:14.902Z,99957.68
2018-05-26T18:50:41.310Z,99959.18
2018-05-26T18:53:07.694Z,99960.94
2018-05-26T18:55:34.127Z,99962.87
2018-05-26T18:58:00.457Z,99965.59
2018-05-26T19:00:26.854Z,99976.32
2018-05-26T19:02:53.254Z,99981.56
2018-05-26T19:05:19.642Z,99982.17
2018-05-26T19:07:46.006Z,99987.78
2018-05-26T19:10:13.369Z,99988.13
2018-05-26T19:12:39.723Z,99988.91
2018-05-26T19:15:06.088Z,99991.27
2018-05-26T19:17:32.419Z,99996.77
2018-05-26T19:19:58.846Z,99995.58
2018-05-26T19:22:25.157Z,99997.55
2018-05-26T19:24:51.532Z,100000.95
2018-05-26T19:27:17.881Z,100002.39
2018-05-26T19:29:44.246Z,99997.55
2018-05-26T19:32:10.590Z,99995.93
2018-05-26T19:34:36.962Z,100004.27
2018-05-26T19:37:03.406Z,99994.03
2018-05-26T19:39:29.774Z,99992.84
2018-05-26T19:41:56.134Z,100001.68
2018-05-26T19:44:22.461Z,100003.89
2018-05-26T19:46:48.865Z,99999.73
2018-05-26T19:49:15.254Z,100000.82
2018-05-26T19:51:41.695Z,100009.28
2018-05-26T19:54:08.070Z,100001.23
2018-05-26T19:56:34.452Z,99990.59
2018-05-26T19:59:00.886Z,99996.66
2018-05-26T20:01:27.298Z,99996.07
2018-05-26T20:03:53.626Z,100002.78
2018-05-26T20:06:20.001Z,100002.84
2018-05-26T20:08:46.400Z,99999.99
2018-05-26T20:11:12.746Z,100004.45
2018-05-26T20:13:39.154Z,100000.58
2018-05-26T20:16:05.546Z,100004.23
2018-05-26T20:18:31.883Z,99999.98
2018-05-26T20:20:58.283Z,100007.05
2018-05-26T20:23:24.642Z,100004.48
2018-05-26T20:25:51.014Z,100016.23
2018-05-26T20:28:17.398Z,100009.95
2018-05-26T20:30:43.785Z,100019.07
2018-05-26T20:33:10.212Z,100024.28
2018-05-26T20:35:36.598Z,100024.00
2018-05-26T20:38:03.003Z,100028.08
2018-05-26T20:40:29.389Z,100027.81
2018-05-26T20:42:55.750Z,100031.93
2018-05-26T20:45:22.149Z,100025.67
2018-05-26T20:47:48.496Z,100020.00
2018-05-26T20:50:14.987Z,100019.63
2018-05-26T20:52:41.378Z,100023.03
2018-05-26T20:55:07.935Z,100023.81
2018-05-26T20:57:34.333Z,100019.70
2018-05-26T21:00:00.881Z,100029.12
2018-05-26T21:02:27.287Z,100029.44
2018-05-26T21:04:53.668Z,100030.74
2018-05-26T21:07:20.022Z,100022.62
2018-05-26T21:09:46.413Z,100024.24
2018-05-26T21:12:12.803Z,100023.45
2018-05-26T21:14:40.025Z,100031.90
2018-05-26T21:17:06.391Z,100020.21
2018-05-26T21:19:32.762Z,100021.81
2018-05-26T21:21:59.217Z,100025.27
2018-05-26T21:24:25.599Z,100019.95
2018-05-26T21:26:51.962Z,100025.77
2018-05-26T21:29:18.358Z,100022.41
2018-05-26T21:31:44.758Z,100020.16
2018-05-26T21:34:11.194Z,100020.56
2018-05-26T21:36:37.561Z,100020.47
2018-05-26T21:39:04.946Z,100018.02
2018-05-26T21:41:31.321Z,100014.75
2018-05-26T21:43:57.706Z,100022.94
2018-05-26T21:46:24.177Z,100018.83
2018-05-26T21:48:50.573Z,100018.11
2018-05-26T21:51:17.033Z,100021.27
2018-05-26T21:53:43.389Z,100027.14
2018-05-26T21:56:09.726Z,100025.91
2018-05-26T21:58:36.133Z,100024.45
2018-05-26T22:01:02.566Z,100029.16
2018-05-26T22:03:29.041Z,100033.63
2018-05-26T22:05:55.424Z,100030.08
2018-05-26T22:08:21.832Z,100029.61
2018-05-26T22:10:48.221Z,100023.70
2018-05-26T22:13:14.625Z,100033.14
2018-05-26T22:15:41.104Z,100020.84
2018-05-26T22:18:07.533Z,100028.08
2018-05-26T22:20:33.905Z,100033.55
2018-05-26T22:23:00.326Z,100028.60
2018-05-26T22:25:26.742Z,100026.50
2018-05-26T22:27:53.110Z,100032.53
2018-05-26T22:30:19.493Z,100020.27
2018-05-26T22:32:45.892Z,100010.30
2018-05-26T22:35:12.253Z,100008.14
2018-05-26T22:37:38.618Z,100008.86
2018-05-26T22:40:05.089Z,100005.15
2018-05-26T22:42:31.455Z,100007.64
2018-05-26T22:44:57.934Z,100006.59
2018-05-26T22:47:24.338Z,100002.61
2018-05-26T22:49:50.692Z,99992.64
2018-05-26T22:52:17.072Z,99979.36
2018-05-26T22:54:43.461Z,99987.80
2018-05-26T22:57:09.845Z,99985.78
2018-05-26T22:59:36.296Z,99980.22
2018-05-26T23:02:03.429Z,99978.03
2018-05-26T23:04:29.819Z,99975.23
2018-05-26T23:06:56.252Z,99973.53
2018-05-26T23:09:22.637Z,99974.87
2018-05-26T23:11:49.017Z,99971.09
2018-05-26T23:14:15.370Z,99975.73
2018-05-26T23:16:41.800Z,99971.41
2018-05-26T23:19:08.151Z,99974.88
2018-05-26T23:21:34.505Z,99973.82
2018-05-26T23:24:00.871Z,99969.64
2018-05-26T23:26:27.217Z,99965.65
2018-05-26T23:28:53.580Z,99958.81
2018-05-26T23:31:21.444Z,99958.45
2018-05-26T23:33:47.809Z,99963.07
2018-05-26T23:36:14.174Z,99957.42
2018-05-26T23:38:40.511Z,99960.39
2018-05-26T23:41:06.904Z,99954.21
2018-05-26T23:43:33.297Z,99955.10
2018-05-26T23:45:59.714Z,99952.80
2018-05-26T23:48:26.098Z,99954.55
2018-05-26T23:50:52.485Z,99960.41
2018-05-26T23:53:18.857Z,99956.20
2018-05-26T23:55:45.202Z,99952.24
2018-05-26T23:58:11.561Z,99953.91
